Alsace Manor, Pennsylvania
Current Conditions -  °F | °C
As of 4:54 PM on Tuesday 25 Nov 2014 (Local Time) from KRDG Reporting Station
Clear Clear  
Wind Chill: 50°   Ceiling: Unl
Heat Index: 50°   Visibility: 10mi
Dew Point: 27°   Wind: 6mph
Humidity: 41%   Direction: 260°W
Pressure: 30.03"   Gusts: NA
Location:  40.4008°N, 75.8851°W
Report Text: KRDG 252154Z 26005KT 10SM CLR 10/M03 A3003 RMK AO2 SLP174 T01001028
Loading
Personal Weather Stations






























Interactive Weather Map New forecast layout! Learn more

10-Day Weather Forecast

Advertisements
Track Severe Weather on mobile